Time;durP1;ratioP1;P1;durP2;ratioP2;P2;SDS_P1;SDS_P2;PMS_P1;PMS_P2;Temp;Humidity;BMP_temperature;BMP_pressure;BME280_temperature;BME280_humidity;BME280_pressure;Samples;Min_cycle;Max_cycle;Signal;HPM_P1;HPM_P2
2022/04/13 00:00:39;;;;;;;14.75;10.18;;;8.50;72.80;;;;;;5033474;28;20389;-14
2022/04/13 00:03:06;;;;;;;17.63;12.45;;;8.50;72.50;;;;;;5031932;28;20366;-16
2022/04/13 00:05:32;;;;;;;14.90;9.20;;;8.50;73.60;;;;;;5032921;28;20049;-16
2022/04/13 00:08:00;;;;;;;17.27;10.35;;;8.40;72.50;;;;;;5033318;28;20076;-16
2022/04/13 00:10:26;;;;;;;15.27;10.98;;;8.40;72.40;;;;;;5032841;28;20029;-14
2022/04/13 00:12:52;;;;;;;17.30;10.38;;;8.40;72.60;;;;;;5033650;28;20025;-15
2022/04/13 00:15:18;;;;;;;15.93;11.80;;;8.40;72.30;;;;;;5033060;28;20021;-16
2022/04/13 00:17:44;;;;;;;18.35;12.45;;;8.40;72.70;;;;;;5033261;28;20026;-14
2022/04/13 00:20:11;;;;;;;18.80;11.88;;;8.40;73.00;;;;;;5033086;28;20032;-16
2022/04/13 00:22:37;;;;;;;15.90;10.90;;;8.40;73.50;;;;;;5032935;28;20033;-17
2022/04/13 00:25:03;;;;;;;21.38;12.75;;;8.40;72.90;;;;;;5033111;28;20384;-16
2022/04/13 00:27:29;;;;;;;20.58;13.80;;;8.40;72.70;;;;;;5033210;28;20025;-17
2022/04/13 00:29:55;;;;;;;18.55;13.95;;;8.40;73.90;;;;;;5034672;28;20087;-17
2022/04/13 00:32:21;;;;;;;17.77;12.10;;;8.50;74.30;;;;;;5036704;28;20425;-14
2022/04/13 00:34:47;;;;;;;12.07;7.28;;;8.40;73.80;;;;;;5037173;28;20022;-14
2022/04/13 00:37:13;;;;;;;14.57;9.75;;;8.40;72.90;;;;;;5037057;28;20037;-16
2022/04/13 00:39:39;;;;;;;15.23;9.65;;;8.40;72.90;;;;;;5036805;28;20083;-16
2022/04/13 00:42:07;;;;;;;19.67;12.60;;;8.40;72.90;;;;;;5036736;28;20078;-16
2022/04/13 00:44:34;;;;;;;23.42;14.85;;;8.40;73.30;;;;;;5036373;28;20059;-14
2022/04/13 00:47:03;;;;;;;20.55;13.35;;;8.40;74.20;;;;;;5036513;28;20033;-15
2022/04/13 00:49:30;;;;;;;15.00;10.50;;;8.40;73.90;;;;;;5036974;28;20429;-14
2022/04/13 00:51:59;;;;;;;15.75;10.75;;;8.30;73.20;;;;;;5036458;28;20032;-17
2022/04/13 00:54:28;;;;;;;18.85;12.65;;;8.30;73.20;;;;;;5036278;28;20036;-16
2022/04/13 00:56:56;;;;;;;20.50;14.73;;;8.30;73.30;;;;;;5036701;28;20025;-16
2022/04/13 00:59:24;;;;;;;20.13;13.90;;;8.30;74.10;;;;;;5036402;28;20037;-15
2022/04/13 01:01:53;;;;;;;19.08;13.20;;;8.30;74.60;;;;;;5036433;28;20056;-16
2022/04/13 01:04:20;;;;;;;20.33;13.88;;;8.30;75.00;;;;;;5036048;28;20521;-16
2022/04/13 01:06:46;;;;;;;21.35;14.00;;;8.30;75.30;;;;;;5036507;28;20036;-15
2022/04/13 01:09:13;;;;;;;29.20;19.15;;;8.20;75.80;;;;;;5036242;28;20515;-15
2022/04/13 01:11:40;;;;;;;18.60;13.13;;;8.20;77.10;;;;;;5036454;28;20428;-16
2022/04/13 01:14:08;;;;;;;26.00;17.65;;;8.30;75.00;;;;;;5036125;28;20380;-16
2022/04/13 01:16:38;;;;;;;21.67;14.82;;;8.30;75.50;;;;;;5036205;28;20099;-15
2022/04/13 01:19:06;;;;;;;28.35;20.90;;;8.30;75.10;;;;;;5036057;28;20029;-16
2022/04/13 01:21:52;;;;;;;24.13;17.33;;;8.30;75.60;;;;;;5036281;28;20481;-14
2022/04/13 01:24:20;;;;;;;37.63;21.55;;;8.40;76.10;;;;;;5035711;28;20032;-16
2022/04/13 01:26:46;;;;;;;23.98;16.80;;;8.30;78.00;;;;;;5036155;28;20108;-15
2022/04/13 01:29:13;;;;;;;23.38;15.07;;;8.30;76.10;;;;;;5036158;28;20083;-14
2022/04/13 01:31:40;;;;;;;31.45;19.73;;;8.30;76.20;;;;;;5035822;28;20037;-16
2022/04/13 01:34:07;;;;;;;24.30;16.02;;;8.20;76.60;;;;;;5036081;28;20025;-15
2022/04/13 01:36:34;;;;;;;30.85;21.02;;;8.20;76.60;;;;;;5035449;28;20033;-15
2022/04/13 01:39:00;;;;;;;24.13;17.35;;;8.20;76.60;;;;;;5036289;28;20105;-14
2022/04/13 01:41:26;;;;;;;22.52;15.07;;;8.20;77.00;;;;;;5034754;28;20041;-14
2022/04/13 01:43:52;;;;;;;23.67;15.52;;;8.20;75.60;;;;;;5036179;28;20029;-14
2022/04/13 01:46:18;;;;;;;18.83;13.02;;;8.10;75.60;;;;;;5034023;28;20460;-14
2022/04/13 01:48:44;;;;;;;24.85;16.27;;;8.10;75.80;;;;;;5035809;28;20079;-16
2022/04/13 01:51:10;;;;;;;24.80;18.23;;;8.10;77.00;;;;;;5035599;28;20539;-14
2022/04/13 01:53:36;;;;;;;25.92;19.10;;;8.10;76.90;;;;;;5035734;28;20060;-16
2022/04/13 01:56:02;;;;;;;25.02;16.65;;;8.10;78.20;;;;;;5035375;28;20076;-14
2022/04/13 01:58:28;;;;;;;27.05;15.68;;;8.00;78.40;;;;;;5035243;28;20018;-14
2022/04/13 02:00:54;;;;;;;24.85;16.23;;;8.00;77.80;;;;;;5035283;28;20370;-14
2022/04/13 02:03:21;;;;;;;25.63;16.90;;;8.00;78.10;;;;;;5035531;28;20070;-15
2022/04/13 02:05:48;;;;;;;22.45;16.33;;;7.90;78.80;;;;;;5034890;28;20129;-17
2022/04/13 02:08:15;;;;;;;30.58;19.17;;;7.90;78.00;;;;;;5034861;28;20489;-15
2022/04/13 02:10:41;;;;;;;20.52;12.40;;;7.90;78.00;;;;;;5035100;28;20024;-15
2022/04/13 02:13:07;;;;;;;19.60;13.80;;;7.90;77.50;;;;;;5035052;28;20025;-16
2022/04/13 02:15:33;;;;;;;26.88;18.05;;;7.90;76.80;;;;;;5035278;28;20025;-15
2022/04/13 02:17:59;;;;;;;23.65;16.50;;;7.90;77.20;;;;;;5034938;28;20547;-17
2022/04/13 02:20:25;;;;;;;18.30;12.95;;;7.90;78.20;;;;;;5034804;28;20026;-17
2022/04/13 02:22:51;;;;;;;20.63;13.15;;;7.90;77.20;;;;;;5034819;28;20033;-16
2022/04/13 02:25:17;;;;;;;20.58;13.70;;;7.90;77.10;;;;;;5035229;28;20045;-15
2022/04/13 02:27:43;;;;;;;25.38;16.13;;;7.90;76.90;;;;;;5035097;28;20036;-14
2022/04/13 02:30:09;;;;;;;26.23;15.05;;;7.90;77.20;;;;;;5034790;28;20025;-16
2022/04/13 02:32:39;;;;;;;24.35;15.38;;;7.90;77.40;;;;;;5034786;28;20037;-14
2022/04/13 02:35:06;;;;;;;20.40;13.55;;;7.80;77.60;;;;;;5034644;28;20456;-16
2022/04/13 02:37:33;;;;;;;23.55;15.50;;;7.80;76.90;;;;;;5034653;28;20049;-14
2022/04/13 02:39:58;;;;;;;23.40;16.08;;;7.80;77.10;;;;;;5034982;28;20029;-15
2022/04/13 02:42:30;;;;;;;20.75;14.10;;;7.80;77.30;;;;;;5034290;28;20088;-16
2022/04/13 02:44:56;;;;;;;24.25;15.52;;;7.80;77.10;;;;;;5034727;28;20082;-14
2022/04/13 02:47:22;;;;;;;22.27;14.05;;;7.70;77.00;;;;;;5034645;28;20382;-14
2022/04/13 02:49:48;;;;;;;22.23;14.65;;;7.70;77.00;;;;;;5034317;28;20079;-16
2022/04/13 02:52:14;;;;;;;22.17;13.85;;;7.70;76.80;;;;;;5034157;28;20018;-17
2022/04/13 02:54:40;;;;;;;21.80;13.50;;;7.70;76.70;;;;;;5033057;28;20032;-15
2022/04/13 02:57:06;;;;;;;23.23;13.98;;;7.70;76.80;;;;;;5034520;28;20078;-15
2022/04/13 02:59:32;;;;;;;20.10;14.30;;;7.60;76.70;;;;;;5034150;28;20108;-14
2022/04/13 03:01:59;;;;;;;22.25;14.70;;;7.60;76.40;;;;;;5034122;28;20032;-16
2022/04/13 03:04:25;;;;;;;25.55;16.38;;;7.60;76.50;;;;;;5033592;28;20145;-14
2022/04/13 03:06:51;;;;;;;25.48;16.73;;;7.50;76.70;;;;;;5034243;28;20470;-17
2022/04/13 03:09:17;;;;;;;23.67;16.27;;;7.50;76.80;;;;;;5034215;28;20018;-16
2022/04/13 03:11:43;;;;;;;34.28;21.70;;;7.50;76.80;;;;;;5033993;28;20121;-16
2022/04/13 03:14:09;;;;;;;25.27;14.30;;;7.40;76.90;;;;;;5034104;28;20104;-15
2022/04/13 03:16:34;;;;;;;33.25;23.15;;;7.40;76.90;;;;;;5033942;28;20026;-17
2022/04/13 03:19:01;;;;;;;34.42;20.88;;;7.40;77.10;;;;;;5033788;28;20109;-16
2022/04/13 03:21:27;;;;;;;37.03;22.30;;;7.30;77.20;;;;;;5033932;28;20484;-16
2022/04/13 03:23:53;;;;;;;31.38;20.98;;;7.30;77.30;;;;;;5033732;28;20039;-16
2022/04/13 03:26:19;;;;;;;32.75;21.02;;;7.20;77.30;;;;;;5033390;28;20124;-16
2022/04/13 03:28:45;;;;;;;29.80;21.25;;;7.20;77.50;;;;;;5033956;28;20022;-15
2022/04/13 03:31:11;;;;;;;30.73;16.98;;;7.10;77.60;;;;;;5033611;28;20443;-16
2022/04/13 03:33:37;;;;;;;39.05;24.75;;;7.10;77.80;;;;;;5033745;28;20021;-17
2022/04/13 03:36:03;;;;;;;30.83;21.10;;;7.00;78.40;;;;;;5033849;28;20033;-15
2022/04/13 03:38:28;;;;;;;26.75;17.88;;;7.00;79.50;;;;;;5033613;28;20056;-16
2022/04/13 03:40:54;;;;;;;26.05;17.85;;;7.00;78.90;;;;;;5033432;28;20063;-15
2022/04/13 03:43:20;;;;;;;27.30;17.58;;;7.00;78.70;;;;;;5034045;28;20025;-16
2022/04/13 03:45:46;;;;;;;27.58;16.75;;;7.00;79.00;;;;;;5033637;28;20045;-16
2022/04/13 03:48:12;;;;;;;25.35;15.43;;;7.00;78.60;;;;;;5033342;28;20041;-15
2022/04/13 03:50:38;;;;;;;28.38;16.67;;;7.00;78.50;;;;;;5033731;28;20036;-16
2022/04/13 03:53:04;;;;;;;28.50;17.23;;;7.00;78.10;;;;;;5033184;28;20393;-16
2022/04/13 03:55:30;;;;;;;25.75;17.58;;;7.00;78.10;;;;;;5033552;28;20067;-16
2022/04/13 03:57:56;;;;;;;28.23;17.50;;;7.00;78.60;;;;;;5033223;28;20496;-16
2022/04/13 04:00:22;;;;;;;29.20;17.77;;;7.00;78.60;;;;;;5033309;28;20061;-15
2022/04/13 04:02:48;;;;;;;27.52;18.77;;;6.90;78.40;;;;;;5033755;28;20080;-14
2022/04/13 04:05:14;;;;;;;24.50;16.52;;;6.90;78.70;;;;;;5032343;28;20077;-16
2022/04/13 04:07:40;;;;;;;24.08;17.15;;;6.80;78.80;;;;;;5033350;28;20041;-14
2022/04/13 04:10:08;;;;;;;29.48;17.40;;;6.80;78.60;;;;;;5031905;28;20025;-14
2022/04/13 04:12:38;;;;;;;27.80;18.33;;;6.70;78.50;;;;;;5033104;28;20064;-14
2022/04/13 04:15:05;;;;;;;32.95;21.95;;;6.70;78.40;;;;;;5033583;28;20097;-17
2022/04/13 04:17:31;;;;;;;31.23;20.05;;;6.60;78.90;;;;;;5033025;28;20029;-15
2022/04/13 04:19:57;;;;;;;29.60;19.58;;;6.50;79.20;;;;;;5032912;28;20028;-15
2022/04/13 04:22:24;;;;;;;34.90;20.70;;;6.50;79.00;;;;;;5032697;28;20120;-16
2022/04/13 04:24:50;;;;;;;37.78;24.45;;;6.50;79.00;;;;;;5033220;28;20065;-15
2022/04/13 04:27:16;;;;;;;34.90;21.50;;;6.50;79.00;;;;;;5032963;28;20504;-16
2022/04/13 04:29:42;;;;;;;51.35;30.00;;;6.50;80.50;;;;;;5033289;28;20041;-15
2022/04/13 04:32:08;;;;;;;42.85;27.17;;;6.60;83.20;;;;;;5033062;28;20036;-15
2022/04/13 04:34:34;;;;;;;43.90;26.77;;;6.60;83.00;;;;;;5032752;28;20029;-15
2022/04/13 04:37:00;;;;;;;46.80;26.35;;;6.70;81.40;;;;;;5033091;28;20029;-16
2022/04/13 04:39:26;;;;;;;50.70;27.88;;;6.70;82.20;;;;;;5033113;28;20092;-17
2022/04/13 04:41:52;;;;;;;38.53;23.60;;;6.70;82.50;;;;;;5032758;28;20472;-15
2022/04/13 04:44:18;;;;;;;45.22;27.52;;;6.70;84.10;;;;;;5032483;28;20030;-14
2022/04/13 04:46:44;;;;;;;39.15;25.15;;;6.80;84.30;;;;;;5033064;28;20033;-16
2022/04/13 04:49:10;;;;;;;38.88;24.10;;;6.80;83.20;;;;;;5032750;28;20059;-14
2022/04/13 04:51:36;;;;;;;39.22;24.08;;;6.80;82.60;;;;;;5033133;28;20021;-16
2022/04/13 04:54:03;;;;;;;36.65;22.83;;;6.80;81.70;;;;;;5032970;28;20401;-16
2022/04/13 04:56:30;;;;;;;33.10;20.80;;;6.80;81.10;;;;;;5032437;28;20018;-16
2022/04/13 04:58:57;;;;;;;38.83;24.05;;;6.80;81.30;;;;;;5033265;28;20018;-16
2022/04/13 05:01:22;;;;;;;28.80;19.25;;;6.80;82.50;;;;;;5032957;28;20022;-14
2022/04/13 05:03:49;;;;;;;27.58;16.27;;;6.80;81.80;;;;;;5033244;28;20022;-15
2022/04/13 05:06:21;;;;;;;24.63;15.43;;;6.90;81.30;;;;;;5032235;28;20386;-15
2022/04/13 05:08:48;;;;;;;25.25;14.80;;;6.90;80.70;;;;;;5032935;28;20030;-15
2022/04/13 05:11:15;;;;;;;21.80;14.73;;;7.00;80.20;;;;;;5032793;28;20048;-17
2022/04/13 05:13:42;;;;;;;27.45;15.75;;;7.20;80.00;;;;;;5032822;28;20083;-13
2022/04/13 05:16:08;;;;;;;22.48;14.77;;;7.40;79.90;;;;;;5033478;28;20101;-15
2022/04/13 05:18:34;;;;;;;22.90;14.55;;;7.60;79.50;;;;;;5035961;28;20119;-17
2022/04/13 05:21:00;;;;;;;25.33;15.27;;;7.90;79.10;;;;;;5036514;28;20068;-15
2022/04/13 05:23:26;;;;;;;25.08;16.63;;;8.10;78.80;;;;;;5036192;28;20038;-17
2022/04/13 05:25:52;;;;;;;23.20;14.90;;;8.40;78.50;;;;;;5036104;28;20046;-16
2022/04/13 05:28:18;;;;;;;24.33;15.73;;;8.60;78.20;;;;;;5035711;28;20393;-17
2022/04/13 05:30:43;;;;;;;28.20;17.73;;;8.90;78.00;;;;;;5035853;28;20025;-15
2022/04/13 05:33:09;;;;;;;25.88;16.50;;;9.10;77.80;;;;;;5036130;28;20021;-16
2022/04/13 05:35:35;;;;;;;31.25;16.52;;;9.40;77.20;;;;;;5035756;28;20424;-15
2022/04/13 05:38:02;;;;;;;21.67;13.63;;;9.70;76.60;;;;;;5035811;28;20071;-16
2022/04/13 05:40:28;;;;;;;24.17;15.57;;;9.90;76.00;;;;;;5035477;28;20061;-16
2022/04/13 05:42:54;;;;;;;29.75;17.25;;;10.20;75.80;;;;;;5035599;28;20032;-17
2022/04/13 05:45:21;;;;;;;22.73;14.68;;;10.50;75.50;;;;;;5035826;28;20064;-16
2022/04/13 05:47:47;;;;;;;22.33;14.45;;;10.80;75.10;;;;;;5035828;28;20037;-14
2022/04/13 05:50:14;;;;;;;18.70;13.40;;;11.00;74.60;;;;;;5035739;28;20063;-16
2022/04/13 05:52:42;;;;;;;24.48;16.52;;;11.30;74.20;;;;;;5035371;28;20036;-14
2022/04/13 05:55:09;;;;;;;24.30;15.88;;;11.60;73.50;;;;;;5035404;28;20504;-14
2022/04/13 05:57:35;;;;;;;24.95;13.90;;;11.90;73.30;;;;;;5035543;28;20029;-16
2022/04/13 06:00:02;;;;;;;30.98;18.63;;;12.10;73.20;;;;;;5035382;28;20104;-15
2022/04/13 06:02:28;;;;;;;28.83;18.95;;;12.30;71.40;;;;;;5035029;28;20030;-16
2022/04/13 06:04:54;;;;;;;26.15;15.27;;;12.20;70.60;;;;;;5035472;28;20096;-16
2022/04/13 06:07:20;;;;;;;30.05;17.98;;;12.10;70.80;;;;;;5035270;28;20029;-15
2022/04/13 06:09:46;;;;;;;28.92;18.48;;;12.00;70.90;;;;;;5035491;28;20456;-14
2022/04/13 06:12:12;;;;;;;27.15;17.75;;;12.00;71.10;;;;;;5035381;28;20102;-15
2022/04/13 06:14:38;;;;;;;28.02;17.95;;;11.90;70.20;;;;;;5034895;28;20385;-14
2022/04/13 06:17:04;;;;;;;30.70;18.77;;;12.10;71.00;;;;;;5035356;28;20026;-14
2022/04/13 06:19:30;;;;;;;25.17;14.88;;;12.10;70.90;;;;;;5034910;28;20116;-15
2022/04/13 06:21:56;;;;;;;25.05;17.40;;;12.10;70.90;;;;;;5034843;28;20030;-15
2022/04/13 06:24:22;;;;;;;24.25;16.40;;;12.40;71.20;;;;;;5034957;28;20048;-15
2022/04/13 06:26:48;;;;;;;20.92;14.23;;;12.50;70.50;;;;;;5034894;28;20108;-14
2022/04/13 06:29:14;;;;;;;21.02;14.43;;;12.80;70.40;;;;;;5033468;28;20467;-15
2022/04/13 06:31:39;;;;;;;22.67;14.90;;;13.10;69.10;;;;;;5034681;28;20022;-14
2022/04/13 06:34:05;;;;;;;23.38;15.68;;;13.50;68.40;;;;;;5034664;28;20025;-14
2022/04/13 06:36:31;;;;;;;25.65;15.95;;;13.80;66.60;;;;;;5034480;28;20104;-16
2022/04/13 06:38:57;;;;;;;22.60;13.52;;;14.10;67.20;;;;;;5034849;28;20033;-15
2022/04/13 06:41:23;;;;;;;25.58;15.05;;;14.40;65.80;;;;;;5034860;28;20178;-14
2022/04/13 06:43:52;;;;;;;22.55;13.90;;;14.60;65.60;;;;;;5035123;28;20017;-16
2022/04/13 06:46:19;;;;;;;23.88;13.43;;;14.90;65.20;;;;;;5035418;28;20037;-15
2022/04/13 06:48:45;;;;;;;24.45;15.70;;;15.00;63.90;;;;;;5034315;28;20035;-13
2022/04/13 06:51:11;;;;;;;24.67;15.80;;;15.30;63.90;;;;;;5034535;28;20079;-13
2022/04/13 06:53:37;;;;;;;23.30;13.27;;;15.30;62.80;;;;;;5034580;28;20052;-15
2022/04/13 06:56:03;;;;;;;28.17;16.27;;;15.20;63.00;;;;;;5033073;28;20029;-14
2022/04/13 06:58:29;;;;;;;24.08;14.35;;;15.10;63.10;;;;;;5034023;28;20021;-14
2022/04/13 07:00:57;;;;;;;25.42;15.00;;;14.90;63.90;;;;;;5034156;28;20028;-16
2022/04/13 07:03:24;;;;;;;28.15;14.93;;;15.00;64.30;;;;;;5034040;28;20033;-15
2022/04/13 07:05:50;;;;;;;26.65;16.27;;;15.10;64.30;;;;;;5033959;28;20056;-14
2022/04/13 07:08:16;;;;;;;27.27;16.95;;;15.20;64.10;;;;;;5034040;28;20380;-14
2022/04/13 07:10:42;;;;;;;24.42;16.52;;;15.40;63.70;;;;;;5034289;28;20071;-14
2022/04/13 07:13:10;;;;;;;23.95;15.55;;;15.60;63.00;;;;;;5034431;28;20496;-14
2022/04/13 07:15:37;;;;;;;23.33;14.30;;;15.80;62.80;;;;;;5033929;28;20087;-15
2022/04/13 07:18:03;;;;;;;22.73;15.27;;;15.90;62.20;;;;;;5033809;28;20037;-15
2022/04/13 07:20:29;;;;;;;24.15;15.20;;;16.20;61.70;;;;;;5033672;28;20022;-16
2022/04/13 07:22:55;;;;;;;23.88;14.73;;;16.40;61.30;;;;;;5034004;28;20032;-14
2022/04/13 07:25:22;;;;;;;19.35;13.48;;;16.60;60.90;;;;;;5033963;28;20026;-15
2022/04/13 07:27:48;;;;;;;20.60;14.32;;;16.70;60.50;;;;;;5033683;28;20374;-15
2022/04/13 07:30:15;;;;;;;20.17;13.07;;;16.90;60.20;;;;;;5034039;28;20083;-17
2022/04/13 07:32:45;;;;;;;21.92;13.85;;;17.10;59.80;;;;;;5033577;28;20030;-15
2022/04/13 07:35:12;;;;;;;24.50;16.48;;;17.30;59.10;;;;;;5033585;28;20111;-14
2022/04/13 07:37:42;;;;;;;21.23;14.38;;;17.40;57.80;;;;;;5033973;28;20107;-16
2022/04/13 07:40:11;;;;;;;30.92;18.52;;;17.50;57.70;;;;;;5033118;28;20020;-15
2022/04/13 07:42:38;;;;;;;25.70;17.58;;;17.60;57.90;;;;;;5033266;28;20033;-15
2022/04/13 07:45:05;;;;;;;30.70;17.15;;;17.70;57.30;;;;;;5032103;28;20021;-15
2022/04/13 07:47:32;;;;;;;18.15;11.63;;;17.80;57.80;;;;;;5033310;28;20393;-16
2022/04/13 07:49:59;;;;;;;20.80;13.32;;;17.90;57.90;;;;;;5033319;28;20096;-15
2022/04/13 07:52:25;;;;;;;18.20;12.93;;;18.00;57.90;;;;;;5031961;28;20048;-14
2022/04/13 07:54:51;;;;;;;21.55;14.40;;;18.00;57.70;;;;;;5032073;28;20389;-13
2022/04/13 07:57:17;;;;;;;25.05;17.13;;;18.00;57.20;;;;;;5033212;28;20035;-14
2022/04/13 07:59:44;;;;;;;21.73;15.05;;;18.00;57.70;;;;;;5033512;28;20029;-14
2022/04/13 08:02:09;;;;;;;20.58;14.43;;;17.90;58.30;;;;;;5033515;28;20033;-15
2022/04/13 08:04:36;;;;;;;22.95;16.13;;;18.00;58.30;;;;;;5032683;28;20183;-14
2022/04/13 08:07:02;;;;;;;24.92;16.50;;;18.10;57.90;;;;;;5033590;28;20385;-14
2022/04/13 08:09:28;;;;;;;24.25;15.88;;;18.20;57.60;;;;;;5033330;28;20104;-14
2022/04/13 08:12:00;;;;;;;18.20;12.45;;;18.30;56.70;;;;;;5031853;28;20061;-14
2022/04/13 08:14:26;;;;;;;19.05;13.45;;;18.40;56.00;;;;;;5032950;28;20033;-14
2022/04/13 08:16:52;;;;;;;19.45;12.40;;;18.40;56.20;;;;;;5033472;28;20481;-14
2022/04/13 08:19:19;;;;;;;18.60;13.35;;;18.60;56.40;;;;;;5033073;28;20040;-14
2022/04/13 08:21:45;;;;;;;23.08;13.73;;;18.80;55.70;;;;;;5032903;28;20159;-15
2022/04/13 08:24:12;;;;;;;15.82;12.25;;;18.90;53.10;;;;;;5033118;28;20029;-14
2022/04/13 08:26:37;;;;;;;17.75;11.77;;;18.90;53.40;;;;;;5031490;28;20512;-14
2022/04/13 08:29:04;;;;;;;15.20;12.23;;;19.00;54.00;;;;;;5032896;28;20037;-14
2022/04/13 08:31:29;;;;;;;19.13;13.15;;;19.20;54.00;;;;;;5032898;28;20022;-15
2022/04/13 08:33:55;;;;;;;21.88;14.73;;;19.30;52.70;;;;;;5032912;28;20032;-14
2022/04/13 08:36:21;;;;;;;17.33;12.20;;;19.40;53.00;;;;;;5032843;28;20030;-14
2022/04/13 08:38:47;;;;;;;15.40;10.50;;;19.60;52.80;;;;;;5033375;28;20029;-14
2022/04/13 08:41:21;;;;;;;16.35;11.32;;;19.80;51.60;;;;;;5033079;28;20037;-14
2022/04/13 08:43:56;;;;;;;19.33;11.45;;;19.90;51.20;;;;;;5032819;28;20116;-13
2022/04/13 08:46:26;;;;;;;18.50;11.23;;;19.90;51.20;;;;;;5033185;28;20113;-14
2022/04/13 08:48:56;;;;;;;15.82;10.35;;;20.00;51.40;;;;;;5033078;28;20033;-13
2022/04/13 08:51:24;;;;;;;15.90;10.95;;;20.20;51.00;;;;;;5035928;28;20026;-14
2022/04/13 08:54:11;;;;;;;17.45;11.88;;;20.40;50.50;;;;;;5035385;28;20029;-13
2022/04/13 08:56:39;;;;;;;15.68;11.23;;;20.60;49.80;;;;;;5036671;28;20366;-13
2022/04/13 08:59:31;;;;;;;16.65;10.43;;;20.80;49.10;;;;;;5036467;28;20025;-14
2022/04/13 09:02:16;;;;;;;14.70;11.20;;;20.90;48.60;;;;;;5020591;28;20120;-13
2022/04/13 09:04:44;;;;;;;17.25;11.50;;;21.00;48.10;;;;;;5036341;28;20099;-15
2022/04/13 09:07:13;;;;;;;16.63;11.38;;;21.00;47.70;;;;;;5036150;28;20029;-14
2022/04/13 09:09:49;;;;;;;18.88;13.10;;;21.00;47.10;;;;;;5036471;28;20021;-13
2022/04/13 09:12:19;;;;;;;17.75;12.10;;;21.00;47.00;;;;;;5036185;28;20028;-15
2022/04/13 09:14:45;;;;;;;16.42;10.77;;;21.10;47.50;;;;;;5036446;28;20108;-14
2022/04/13 09:17:12;;;;;;;16.17;10.52;;;21.10;47.90;;;;;;5036126;28;20528;-14
2022/04/13 09:19:38;;;;;;;14.63;10.18;;;21.30;47.60;;;;;;5036178;28;20025;-14
2022/04/13 09:22:09;;;;;;;14.15;9.18;;;21.30;47.70;;;;;;5036101;28;20033;-14
2022/04/13 09:24:38;;;;;;;15.13;10.25;;;21.40;47.80;;;;;;5036074;28;20025;-15
2022/04/13 09:27:05;;;;;;;15.38;10.13;;;21.70;47.20;;;;;;5036253;28;20052;-14
2022/04/13 09:29:31;;;;;;;14.32;10.00;;;21.90;46.50;;;;;;5036229;28;20033;-14
2022/04/13 09:31:57;;;;;;;14.60;9.27;;;22.10;46.60;;;;;;5036151;28;20183;-14
2022/04/13 09:34:23;;;;;;;13.13;9.40;;;22.30;46.00;;;;;;5035694;28;20075;-14
2022/04/13 09:36:50;;;;;;;13.77;9.40;;;22.40;43.60;;;;;;5036093;28;20071;-15
2022/04/13 09:39:16;;;;;;;14.25;8.90;;;22.50;42.70;;;;;;5034545;28;20041;-13
2022/04/13 09:41:42;;;;;;;13.07;8.43;;;22.60;41.50;;;;;;5036115;28;20076;-14
2022/04/13 09:44:15;;;;;;;14.57;8.77;;;22.60;41.50;;;;;;5035883;28;20033;-14
2022/04/13 09:46:42;;;;;;;;;;;22.60;40.10;;;;;;5036253;28;20029;-14
2022/04/13 09:49:16;;;;;;;13.00;8.15;;;22.60;40.10;;;;;;5035550;28;19912;-14
2022/04/13 09:51:46;;;;;;;13.07;8.05;;;22.70;40.60;;;;;;5035776;28;20033;-13
2022/04/13 09:54:13;;;;;;;11.80;7.60;;;22.80;39.40;;;;;;5036111;28;20450;-14
2022/04/13 09:56:47;;;;;;;11.10;7.63;;;22.90;40.10;;;;;;5035398;28;20030;-14
2022/04/13 09:59:27;;;;;;;12.77;8.35;;;23.20;39.10;;;;;;5035443;28;20037;-14
2022/04/13 10:01:53;;;;;;;15.30;9.48;;;23.20;39.60;;;;;;5034596;28;20076;-14
2022/04/13 10:04:27;;;;;;;10.82;7.20;;;23.40;40.30;;;;;;5035131;28;20061;-14
2022/04/13 10:06:53;;;;;;;12.30;6.80;;;23.60;38.20;;;;;;5035489;28;20029;-15
2022/04/13 10:09:19;;;;;;;12.20;7.35;;;23.90;37.40;;;;;;5034015;28;20032;-14
2022/04/13 10:12:17;;;;;;;10.40;6.60;;;23.80;38.10;;;;;;5033946;28;20117;-14
2022/04/13 10:14:44;;;;;;;10.82;6.43;;;23.60;37.00;;;;;;4994044;28;20137;-15
2022/04/13 10:17:20;;;;;;;12.07;6.90;;;23.70;39.30;;;;;;4993607;28;20045;-13
2022/04/13 10:19:54;;;;;;;13.52;7.32;;;23.90;38.60;;;;;;4993650;28;20026;-14
2022/04/13 10:22:20;;;;;;;12.50;7.28;;;24.10;37.80;;;;;;4993308;28;20081;-14
2022/04/13 10:24:46;;;;;;;12.18;7.65;;;24.10;38.30;;;;;;4993780;28;20050;-14
2022/04/13 10:27:19;;;;;;;11.63;7.53;;;24.00;38.50;;;;;;4993422;28;20030;-15
2022/04/13 10:29:47;;;;;;;14.45;8.40;;;24.00;37.60;;;;;;4993378;28;20034;-15
2022/04/13 10:32:24;;;;;;;14.85;8.40;;;24.00;37.60;;;;;;4993135;28;20041;-15
2022/04/13 10:34:52;;;;;;;10.35;6.90;;;24.20;38.00;;;;;;4993659;28;20027;-13
2022/04/13 10:37:20;;;;;;;18.40;8.65;;;24.10;38.70;;;;;;4993214;28;20447;-14
2022/04/13 10:39:48;;;;;;;16.60;8.35;;;24.10;38.30;;;;;;4993159;28;20018;-14
2022/04/13 10:42:16;;;;;;;14.63;7.93;;;24.00;38.80;;;;;;4993118;28;20034;-18
2022/04/13 10:44:53;;;;;;;14.98;8.25;;;23.90;38.20;;;;;;4993196;28;20101;-13
2022/04/13 10:47:26;;;;;;;13.52;8.10;;;23.70;37.40;;;;;;4993170;28;20037;-15
2022/04/13 10:49:57;;;;;;;11.50;7.13;;;23.50;38.50;;;;;;5007125;28;20072;-14
2022/04/13 10:52:58;;;;;;;14.27;7.72;;;23.50;38.40;;;;;;5034299;28;20041;-14
2022/04/13 10:55:27;;;;;;;11.63;7.00;;;23.60;37.50;;;;;;5034253;28;20071;-14
2022/04/13 10:58:01;;;;;;;15.52;7.95;;;23.70;38.10;;;;;;5034324;28;20381;-14
2022/04/13 11:00:31;;;;;;;10.98;7.20;;;24.10;38.20;;;;;;5034377;28;20101;-14
2022/04/13 11:03:06;;;;;;;11.82;7.93;;;24.50;37.20;;;;;;5034216;28;20026;-14
2022/04/13 11:05:33;;;;;;;14.57;8.27;;;24.90;36.20;;;;;;5034000;28;20103;-14
2022/04/13 11:08:07;;;;;;;13.70;8.65;;;25.20;35.00;;;;;;5033950;28;20060;-14
2022/04/13 11:10:35;;;;;;;12.85;7.70;;;25.40;34.90;;;;;;5034172;28;20048;-15
2022/04/13 11:13:01;;;;;;;11.55;6.32;;;25.50;33.90;;;;;;5034160;28;20099;-15
2022/04/13 11:15:48;;;;;;;16.35;8.57;;;25.70;34.40;;;;;;5033278;28;20469;-15
2022/04/13 11:18:18;;;;;;;12.60;7.38;;;26.00;33.80;;;;;;5033714;28;20029;-15
2022/04/13 11:21:02;;;;;;;13.82;8.55;;;26.20;34.50;;;;;;5034124;28;20029;-15
2022/04/13 11:23:54;;;;;;;14.07;6.93;;;26.40;33.40;;;;;;5033878;28;20030;-14
2022/04/13 11:26:35;;;;;;;13.15;8.25;;;26.60;34.00;;;;;;5031535;28;20467;-14
2022/04/13 11:29:17;;;;;;;15.52;9.43;;;26.70;33.40;;;;;;5033901;28;20025;-14
2022/04/13 11:32:02;;;;;;;12.10;7.63;;;26.70;33.80;;;;;;5034010;28;20025;-14
2022/04/13 11:34:35;;;;;;;19.52;10.23;;;26.60;34.00;;;;;;5033385;28;20124;-15
2022/04/13 11:37:04;;;;;;;17.95;9.90;;;26.80;33.80;;;;;;5033518;28;20036;-14
2022/04/13 11:39:53;;;;;;;15.73;8.45;;;26.90;33.00;;;;;;5033865;28;20075;-14
2022/04/13 11:42:34;;;;;;;16.50;9.70;;;27.20;33.40;;;;;;5033707;28;20028;-14
2022/04/13 11:45:11;;;;;;;14.32;8.50;;;27.70;31.20;;;;;;5033884;28;20037;-15
2022/04/13 11:47:44;;;;;;;14.63;8.40;;;27.90;31.70;;;;;;5033780;28;20033;-14
2022/04/13 11:50:14;;;;;;;17.13;9.65;;;28.00;31.70;;;;;;5033360;28;20026;-15
2022/04/13 11:52:43;;;;;;;14.13;7.82;;;27.90;32.00;;;;;;5033792;28;20389;-15
2022/04/13 11:55:17;;;;;;;14.25;8.82;;;28.00;32.50;;;;;;5033295;28;20400;-15
2022/04/13 11:58:07;;;;;;;13.95;9.18;;;28.20;30.80;;;;;;5033316;28;20025;-14
2022/04/13 12:01:03;;;;;;;12.45;7.82;;;28.20;30.30;;;;;;5033084;28;20061;-14
2022/04/13 12:03:35;;;;;;;17.30;10.25;;;28.00;30.80;;;;;;5033525;28;20034;-14
2022/04/13 12:06:09;;;;;;;17.65;10.32;;;28.10;31.70;;;;;;5032973;28;20045;-14
2022/04/13 12:08:39;;;;;;;14.60;9.95;;;28.40;31.00;;;;;;5033206;28;20030;-14
2022/04/13 12:11:11;;;;;;;16.92;9.60;;;28.40;31.00;;;;;;5033118;28;20116;-14
2022/04/13 12:13:51;;;;;;;13.20;8.33;;;28.50;30.80;;;;;;5033156;28;20048;-14
2022/04/13 12:16:21;;;;;;;17.02;9.80;;;28.70;31.40;;;;;;5033245;28;20038;-14
2022/04/13 12:18:48;;;;;;;18.23;9.75;;;29.00;30.30;;;;;;5033283;28;20017;-14
2022/04/13 12:21:16;;;;;;;17.20;10.38;;;29.20;29.90;;;;;;5032989;28;20392;-14
2022/04/13 12:23:44;;;;;;;17.08;8.73;;;29.40;29.60;;;;;;5033240;28;20049;-13
2022/04/13 12:26:10;;;;;;;16.42;9.82;;;29.40;29.90;;;;;;5036153;28;20033;-14
2022/04/13 12:28:37;;;;;;;14.38;9.85;;;29.60;29.40;;;;;;5036841;28;20026;-15
2022/04/13 12:31:07;;;;;;;13.85;9.43;;;29.70;29.80;;;;;;5037016;28;20041;-14
2022/04/13 12:33:35;;;;;;;16.77;9.82;;;29.70;29.50;;;;;;5036990;28;20021;-14
2022/04/13 12:36:14;;;;;;;11.23;7.32;;;29.70;28.80;;;;;;5036917;28;20033;-14
2022/04/13 12:38:49;;;;;;;16.73;9.48;;;29.60;29.40;;;;;;5036670;28;20396;-14